Luke Air Force Base
KLUF : now visible

Airfield :











YOU CAN JOIN US ON...

 
LOGIN :

Register | Disclaimer

   EN    FR    IT 

 









Legend :    VFR   Marginal VFR   IFR   Intensive IFR   Very Intensive IFR
Visi :
Ceiling :
>= 8 km
>= 3000ft
5 to 8 km
1000 to 3000 ft
1500m to 5 km
500 to 1000 ft
800 to 1500m
200 to 500 ft
< 800m
< 200 ft
Symbols :   Thunderstorms  Fog  Heavy snow  Heavy precipitations  Wind > 20 kt







- Airport Elevation : 1085 ft


KLUF - Luke Air Force Base

CURRENT METAR :
  • 260358Z AUTO 24011KT 10SM CLR 36/17 A2981 RMK AO2 SLP079 T03600171 $

EXPIRED METARs :
  • 260258Z AUTO 23012KT 10SM CLR 37/17 A2979 RMK AO2 SLP072 T03680169 55004 $
  • 260158Z AUTO 23011KT 10SM CLR 38/17 A2979 RMK AO2 SLP073 T03770171 $

Expired Forecast.
No reported NOTAMs for that airfield.



MET'MAP, your aeronautical weather chart ! - Copyright ORBIFLY December 2007 - Disclaimer

ORBIFLY MET'MAP TEAM :

Programming & Development : Alexandra Zaïnal
Concept & Development : Baudouin d'Aumeries
Co-Development & Prog : Marc-Olivier Méhu
Technical & hardware support : Manuel Goepfert

Contact : metmap@orbifly.com




SOURCES & CREDITS :

   NOAA       Earth
Advisory